Ana Sayfa
METAR-TAF:

METAR-TAF

Havaalanları :

Beaumont / Port Arthur, Teksas, Amerika Birleşik Devletleri

Enlem: 29-57-03N, Boylam: 094-01-15W, yükseklik: 5 m

Güncel hava durumu gözlemi

Rapor saat 05:53 UTC de 29 dakika önce yapıldı.
Rüzgar kuzey/kuzeydoğudan 10 kt
Sıcaklık 24°C
Nem 69%
Basınç 1016 hPa
Görüş mesafesi: 16.1 km
Açık gökyüzü

METAR: KBPT 240553Z AUTO 03010KT 10SM CLR 24/18 A3001 RMK AO2 SLP161 T02390183 10300 20239 403110239 50003

Saat: 01:22 (06:22 UTC)

Tahmin

Rapor saat 05:20 UTC de 1 saat ve 2 dakika önce yapıldı.
Ayın 24'si saat 06 UTC'den ayın 25'si saat 06 UTC'ye kadar geçerli Tahmin
Rüzgar kuzeydan 8 kt
Görüş mesafesi: 10 km
Açık gökyüzü
Ayın 24'si saat 1500 UTC'den
Rüzgar kuzey/kuzeydoğudan 13 kt ve 21 kt'a kadar ani rüzgarlar
Görüş mesafesi: 10 km
Açık gökyüzü

TAF: KBPT 240520Z 2406/2506 01008KT P6SM SKC FM241500 03013G21KT P6SM SKC

4.000'den fazla havaalanı için hava durumu gözlemleri ve tahminleri (METAR ve TAF raporları).

Kullanılabilir istasyonlar harita üzerinde sarı ve kırmızı noktalarla gösterilir.

İstasyonun adını görmek için fareyi noktanın üzerinde gezdirin.

Sonrasında hava gözlem ve tahminlerini görmek için tıklayın.

Haritayı değiştirmek için: yaklaştırmak için siyah artı işaretli yeşil düğmeye ve uzaklaştırmak için de eksi işaretli düğmeye hızla tıklayın; bitişik haritalar için yeşil okları kullanın.


METAR-TAF: